Caravelas, Brazil
Current Conditions -  °F | °C
As of 8:00 AM on Thursday 18 Dec 2014 (Local Time) from SBPS Reporting Station
Light Rain Light Rain  
Wind Chill: 75°   Ceiling: 4000
Heat Index: 75°   Visibility: 5mi
Dew Point: 72°   Wind: 8mph
Humidity: 89%   Direction: 350°N
Pressure: 29.91"   Gusts: NA
Location:  17.63°S, 39.26°W
Report Text: SBPS 181100Z 35007KT 8000 -RA SCT008 SCT020 BKN040 24/22 Q1013
Loading
Personal Weather Stations






























Interactive Weather Map New forecast layout! Learn more

10-Day Weather Forecast

Advertisements
Track Severe Weather on mobile